Terminal Aerodrome Forecast
Issued by NWS Wichita, KS

Home | Current Version | Previous Version | Text Only | Print | Product List | Glossary On
Versions: 1 2 3 4 5 6 7 8 9 10 11 12 13 14 15 16 17
000
FTUS43 KICT 202142 AAA
TAFICT
TAF AMD
KICT 202142Z 2022/2118 18018G25KT P6SM SKC
     FM210000 15007KT P6SM SCT070
     FM211600 19016G25KT P6SM BKN250=

USA.gov is the U.S. government's official web portal to all federal, state and local government web resources and services.